sensor_id;sensor_type;location;lat;lon;timestamp;temperature;humidity
52709;DHT22;38606;52.986;6.980;2024-01-06T00:01:41;2.50;99.90
52709;DHT22;38606;52.986;6.980;2024-01-06T00:04:07;2.50;99.90
52709;DHT22;38606;52.986;6.980;2024-01-06T00:06:33;2.60;99.90
52709;DHT22;38606;52.986;6.980;2024-01-06T00:08:58;2.40;99.90
52709;DHT22;38606;52.986;6.980;2024-01-06T00:11:24;2.50;99.90
52709;DHT22;38606;52.986;6.980;2024-01-06T00:13:50;2.40;99.90
52709;DHT22;38606;52.986;6.980;2024-01-06T00:16:19;2.30;99.90
52709;DHT22;38606;52.986;6.980;2024-01-06T00:18:46;2.40;99.90
52709;DHT22;38606;52.986;6.980;2024-01-06T00:21:12;2.40;99.90
52709;DHT22;38606;52.986;6.980;2024-01-06T00:23:39;2.40;99.90
52709;DHT22;38606;52.986;6.980;2024-01-06T00:26:05;2.30;99.90
52709;DHT22;38606;52.986;6.980;2024-01-06T00:28:31;2.30;99.90
52709;DHT22;38606;52.986;6.980;2024-01-06T00:30:56;2.40;99.90
52709;DHT22;38606;52.986;6.980;2024-01-06T00:33:22;2.40;99.90
52709;DHT22;38606;52.986;6.980;2024-01-06T00:35:48;2.40;99.90
52709;DHT22;38606;52.986;6.980;2024-01-06T00:38:14;2.40;99.90
52709;DHT22;38606;52.986;6.980;2024-01-06T00:40:40;2.30;99.90
52709;DHT22;38606;52.986;6.980;2024-01-06T00:43:05;2.40;99.90
52709;DHT22;38606;52.986;6.980;2024-01-06T00:47:57;2.10;99.90
52709;DHT22;38606;52.986;6.980;2024-01-06T00:52:49;2.30;99.90
52709;DHT22;38606;52.986;6.980;2024-01-06T00:55:21;2.30;99.90
52709;DHT22;38606;52.986;6.980;2024-01-06T01:00:14;2.30;99.90
52709;DHT22;38606;52.986;6.980;2024-01-06T01:02:39;2.30;99.90
52709;DHT22;38606;52.986;6.980;2024-01-06T01:05:05;2.30;99.90
52709;DHT22;38606;52.986;6.980;2024-01-06T01:07:33;2.30;99.90
52709;DHT22;38606;52.986;6.980;2024-01-06T01:14:52;2.20;99.90
52709;DHT22;38606;52.986;6.980;2024-01-06T01:17:19;2.10;99.90
52709;DHT22;38606;52.986;6.980;2024-01-06T01:19:45;2.30;99.90
52709;DHT22;38606;52.986;6.980;2024-01-06T01:22:11;2.10;99.90
52709;DHT22;38606;52.986;6.980;2024-01-06T01:24:37;2.30;99.90
52709;DHT22;38606;52.986;6.980;2024-01-06T01:27:03;2.10;99.90
52709;DHT22;38606;52.986;6.980;2024-01-06T01:29:28;2.30;99.90
52709;DHT22;38606;52.986;6.980;2024-01-06T01:31:54;2.20;99.90
52709;DHT22;38606;52.986;6.980;2024-01-06T01:34:20;2.30;99.90
52709;DHT22;38606;52.986;6.980;2024-01-06T01:36:45;2.20;99.90
52709;DHT22;38606;52.986;6.980;2024-01-06T01:39:11;2.20;99.90
52709;DHT22;38606;52.986;6.980;2024-01-06T01:41:37;2.20;99.90
52709;DHT22;38606;52.986;6.980;2024-01-06T01:44:03;2.20;99.90
52709;DHT22;38606;52.986;6.980;2024-01-06T01:46:30;2.20;99.90
52709;DHT22;38606;52.986;6.980;2024-01-06T01:48:57;2.20;99.90
52709;DHT22;38606;52.986;6.980;2024-01-06T01:51:27;2.10;99.90
52709;DHT22;38606;52.986;6.980;2024-01-06T01:53:52;2.10;99.90
52709;DHT22;38606;52.986;6.980;2024-01-06T01:56:19;2.10;99.90
52709;DHT22;38606;52.986;6.980;2024-01-06T02:03:38;2.00;99.90
52709;DHT22;38606;52.986;6.980;2024-01-06T02:08:32;2.00;99.90
52709;DHT22;38606;52.986;6.980;2024-01-06T02:15:50;2.00;99.90
52709;DHT22;38606;52.986;6.980;2024-01-06T02:18:16;1.90;99.90
52709;DHT22;38606;52.986;6.980;2024-01-06T02:20:46;1.90;99.90
52709;DHT22;38606;52.986;6.980;2024-01-06T02:28:06;1.80;99.90
52709;DHT22;38606;52.986;6.980;2024-01-06T02:30:32;1.90;99.90
52709;DHT22;38606;52.986;6.980;2024-01-06T02:35:23;1.80;99.90
52709;DHT22;38606;52.986;6.980;2024-01-06T02:42:41;1.80;99.90
52709;DHT22;38606;52.986;6.980;2024-01-06T02:45:07;1.70;99.90
52709;DHT22;38606;52.986;6.980;2024-01-06T02:50:00;1.70;99.90
52709;DHT22;38606;52.986;6.980;2024-01-06T02:54:52;1.60;99.90
52709;DHT22;38606;52.986;6.980;2024-01-06T02:57:18;1.60;99.90
52709;DHT22;38606;52.986;6.980;2024-01-06T03:02:11;1.60;99.90
52709;DHT22;38606;52.986;6.980;2024-01-06T03:04:37;1.60;99.90
52709;DHT22;38606;52.986;6.980;2024-01-06T03:07:02;1.60;99.90
52709;DHT22;38606;52.986;6.980;2024-01-06T03:09:28;1.60;99.90
52709;DHT22;38606;52.986;6.980;2024-01-06T03:11:54;1.50;99.90
52709;DHT22;38606;52.986;6.980;2024-01-06T03:24:04;1.60;99.90
52709;DHT22;38606;52.986;6.980;2024-01-06T03:28:56;1.60;99.90
52709;DHT22;38606;52.986;6.980;2024-01-06T03:31:24;1.80;99.90
52709;DHT22;38606;52.986;6.980;2024-01-06T03:41:09;1.50;99.90
52709;DHT22;38606;52.986;6.980;2024-01-06T03:53:19;1.50;99.90
52709;DHT22;38606;52.986;6.980;2024-01-06T03:55:44;1.50;99.90
52709;DHT22;38606;52.986;6.980;2024-01-06T03:58:10;1.50;99.90
52709;DHT22;38606;52.986;6.980;2024-01-06T04:00:35;1.40;99.90
52709;DHT22;38606;52.986;6.980;2024-01-06T04:05:27;1.60;99.90
52709;DHT22;38606;52.986;6.980;2024-01-06T04:10:19;1.40;99.90
52709;DHT22;38606;52.986;6.980;2024-01-06T04:17:37;1.50;99.90
52709;DHT22;38606;52.986;6.980;2024-01-06T04:22:29;1.40;99.90
52709;DHT22;38606;52.986;6.980;2024-01-06T04:34:39;1.60;99.90
52709;DHT22;38606;52.986;6.980;2024-01-06T04:39:31;1.50;99.90
52709;DHT22;38606;52.986;6.980;2024-01-06T04:41:56;1.50;99.90
52709;DHT22;38606;52.986;6.980;2024-01-06T04:51:41;1.40;99.90
52709;DHT22;38606;52.986;6.980;2024-01-06T04:54:06;1.50;99.90
52709;DHT22;38606;52.986;6.980;2024-01-06T04:56:32;1.40;99.90
52709;DHT22;38606;52.986;6.980;2024-01-06T05:08:42;1.40;99.90
52709;DHT22;38606;52.986;6.980;2024-01-06T05:11:10;1.40;99.90
52709;DHT22;38606;52.986;6.980;2024-01-06T05:16:03;1.40;99.90
52709;DHT22;38606;52.986;6.980;2024-01-06T05:18:29;1.40;99.90
52709;DHT22;38606;52.986;6.980;2024-01-06T05:20:55;1.40;99.90
52709;DHT22;38606;52.986;6.980;2024-01-06T05:30:40;1.40;99.90
52709;DHT22;38606;52.986;6.980;2024-01-06T05:33:08;1.40;99.90
52709;DHT22;38606;52.986;6.980;2024-01-06T05:38:01;1.40;99.90
52709;DHT22;38606;52.986;6.980;2024-01-06T05:45:21;1.50;99.90
52709;DHT22;38606;52.986;6.980;2024-01-06T05:50:16;1.40;99.90
52709;DHT22;38606;52.986;6.980;2024-01-06T05:52:42;1.40;99.90
52709;DHT22;38606;52.986;6.980;2024-01-06T05:55:08;1.30;99.90
52709;DHT22;38606;52.986;6.980;2024-01-06T06:12:13;1.20;99.90
52709;DHT22;38606;52.986;6.980;2024-01-06T06:14:39;1.40;99.90
52709;DHT22;38606;52.986;6.980;2024-01-06T06:19:31;1.20;99.90
52709;DHT22;38606;52.986;6.980;2024-01-06T06:41:30;1.30;99.90
52709;DHT22;38606;52.986;6.980;2024-01-06T06:43:59;1.20;99.90
52709;DHT22;38606;52.986;6.980;2024-01-06T06:51:17;1.30;99.90
52709;DHT22;38606;52.986;6.980;2024-01-06T06:56:09;1.30;99.90
52709;DHT22;38606;52.986;6.980;2024-01-06T07:15:38;1.30;99.90
52709;DHT22;38606;52.986;6.980;2024-01-06T07:18:04;1.30;99.90
52709;DHT22;38606;52.986;6.980;2024-01-06T07:20:29;1.20;99.90
52709;DHT22;38606;52.986;6.980;2024-01-06T07:27:47;1.40;99.90
52709;DHT22;38606;52.986;6.980;2024-01-06T07:30:14;1.40;99.90
52709;DHT22;38606;52.986;6.980;2024-01-06T07:32:40;1.30;99.90
52709;DHT22;38606;52.986;6.980;2024-01-06T07:35:05;1.40;99.90
52709;DHT22;38606;52.986;6.980;2024-01-06T07:37:31;1.40;99.90
52709;DHT22;38606;52.986;6.980;2024-01-06T07:42:24;1.20;99.90
52709;DHT22;38606;52.986;6.980;2024-01-06T07:44:49;1.40;99.90
52709;DHT22;38606;52.986;6.980;2024-01-06T07:47:15;1.20;99.90
52709;DHT22;38606;52.986;6.980;2024-01-06T07:49:41;1.20;99.90
52709;DHT22;38606;52.986;6.980;2024-01-06T07:52:06;1.20;99.90
52709;DHT22;38606;52.986;6.980;2024-01-06T07:59:24;1.20;99.90
52709;DHT22;38606;52.986;6.980;2024-01-06T08:04:16;1.20;99.90
52709;DHT22;38606;52.986;6.980;2024-01-06T08:11:35;1.20;99.90
52709;DHT22;38606;52.986;6.980;2024-01-06T08:21:19;1.10;99.90
52709;DHT22;38606;52.986;6.980;2024-01-06T08:33:31;1.30;99.90
52709;DHT22;38606;52.986;6.980;2024-01-06T08:35:56;1.10;99.90
52709;DHT22;38606;52.986;6.980;2024-01-06T08:38:22;1.20;99.90
52709;DHT22;38606;52.986;6.980;2024-01-06T08:40:48;1.30;99.90
52709;DHT22;38606;52.986;6.980;2024-01-06T08:57:52;1.30;99.90
52709;DHT22;38606;52.986;6.980;2024-01-06T09:02:44;1.20;99.90
52709;DHT22;38606;52.986;6.980;2024-01-06T09:05:09;1.40;99.90
52709;DHT22;38606;52.986;6.980;2024-01-06T09:12:27;1.30;99.90
52709;DHT22;38606;52.986;6.980;2024-01-06T09:19:45;1.40;99.90
52709;DHT22;38606;52.986;6.980;2024-01-06T09:22:11;1.40;99.90
52709;DHT22;38606;52.986;6.980;2024-01-06T09:24:37;1.50;99.90
52709;DHT22;38606;52.986;6.980;2024-01-06T09:27:02;1.40;99.90
52709;DHT22;38606;52.986;6.980;2024-01-06T09:29:29;1.40;99.90
52709;DHT22;38606;52.986;6.980;2024-01-06T09:31:54;1.40;99.90
52709;DHT22;38606;52.986;6.980;2024-01-06T09:34:20;1.50;99.90
52709;DHT22;38606;52.986;6.980;2024-01-06T09:36:46;1.30;99.90
52709;DHT22;38606;52.986;6.980;2024-01-06T09:39:11;1.50;99.90
52709;DHT22;38606;52.986;6.980;2024-01-06T09:41:37;1.50;99.90
52709;DHT22;38606;52.986;6.980;2024-01-06T09:44:03;1.50;99.90
52709;DHT22;38606;52.986;6.980;2024-01-06T09:46:29;1.40;99.90
52709;DHT22;38606;52.986;6.980;2024-01-06T09:48:55;1.40;99.90
52709;DHT22;38606;52.986;6.980;2024-01-06T09:51:22;1.60;99.90
52709;DHT22;38606;52.986;6.980;2024-01-06T09:54:09;1.50;99.90
52709;DHT22;38606;52.986;6.980;2024-01-06T09:59:01;1.50;99.90
52709;DHT22;38606;52.986;6.980;2024-01-06T10:01:27;1.50;99.90
52709;DHT22;38606;52.986;6.980;2024-01-06T10:03:53;1.50;99.90
52709;DHT22;38606;52.986;6.980;2024-01-06T10:06:19;1.60;99.90
52709;DHT22;38606;52.986;6.980;2024-01-06T10:08:50;1.60;99.90
52709;DHT22;38606;52.986;6.980;2024-01-06T10:11:16;1.50;99.90
52709;DHT22;38606;52.986;6.980;2024-01-06T10:13:42;1.60;99.90
52709;DHT22;38606;52.986;6.980;2024-01-06T10:16:09;1.50;99.90
52709;DHT22;38606;52.986;6.980;2024-01-06T10:18:35;1.60;99.90
52709;DHT22;38606;52.986;6.980;2024-01-06T10:21:05;1.40;99.90
52709;DHT22;38606;52.986;6.980;2024-01-06T10:23:32;1.80;99.90
52709;DHT22;38606;52.986;6.980;2024-01-06T10:25:58;1.60;99.90
52709;DHT22;38606;52.986;6.980;2024-01-06T10:28:24;1.50;99.90
52709;DHT22;38606;52.986;6.980;2024-01-06T10:30:55;1.70;99.90
52709;DHT22;38606;52.986;6.980;2024-01-06T10:33:21;1.70;99.90
52709;DHT22;38606;52.986;6.980;2024-01-06T10:35:48;1.60;99.90
52709;DHT22;38606;52.986;6.980;2024-01-06T10:38:14;1.70;99.90
52709;DHT22;38606;52.986;6.980;2024-01-06T10:40:56;1.60;99.90
52709;DHT22;38606;52.986;6.980;2024-01-06T10:43:25;1.70;99.90
52709;DHT22;38606;52.986;6.980;2024-01-06T10:45:53;1.70;99.90
52709;DHT22;38606;52.986;6.980;2024-01-06T10:48:24;1.50;99.90
52709;DHT22;38606;52.986;6.980;2024-01-06T10:50:51;1.70;99.90
52709;DHT22;38606;52.986;6.980;2024-01-06T10:53:20;1.70;99.90
52709;DHT22;38606;52.986;6.980;2024-01-06T10:55:46;1.70;99.90
52709;DHT22;38606;52.986;6.980;2024-01-06T10:58:14;1.70;99.90
52709;DHT22;38606;52.986;6.980;2024-01-06T11:03:09;1.80;99.90
52709;DHT22;38606;52.986;6.980;2024-01-06T11:05:38;1.70;99.90
52709;DHT22;38606;52.986;6.980;2024-01-06T11:08:06;1.60;99.90
52709;DHT22;38606;52.986;6.980;2024-01-06T11:10:33;1.70;99.90
52709;DHT22;38606;52.986;6.980;2024-01-06T11:13:13;1.70;99.90
52709;DHT22;38606;52.986;6.980;2024-01-06T11:15:45;1.60;99.90
52709;DHT22;38606;52.986;6.980;2024-01-06T11:18:31;1.60;99.90
52709;DHT22;38606;52.986;6.980;2024-01-06T11:23:43;1.70;99.90
52709;DHT22;38606;52.986;6.980;2024-01-06T11:26:09;1.60;99.90
52709;DHT22;38606;52.986;6.980;2024-01-06T11:28:45;1.70;99.90
52709;DHT22;38606;52.986;6.980;2024-01-06T11:31:12;1.50;99.90
52709;DHT22;38606;52.986;6.980;2024-01-06T11:33:44;1.70;99.90
52709;DHT22;38606;52.986;6.980;2024-01-06T11:36:10;1.60;99.90
52709;DHT22;38606;52.986;6.980;2024-01-06T11:38:40;1.80;99.90
52709;DHT22;38606;52.986;6.980;2024-01-06T11:41:08;1.60;99.90
52709;DHT22;38606;52.986;6.980;2024-01-06T11:43:38;1.70;99.90
52709;DHT22;38606;52.986;6.980;2024-01-06T11:46:07;1.50;99.90
52709;DHT22;38606;52.986;6.980;2024-01-06T11:48:34;1.60;99.90
52709;DHT22;38606;52.986;6.980;2024-01-06T11:51:03;1.60;99.90
52709;DHT22;38606;52.986;6.980;2024-01-06T11:55:55;1.70;99.90
52709;DHT22;38606;52.986;6.980;2024-01-06T11:58:21;1.60;99.90
52709;DHT22;38606;52.986;6.980;2024-01-06T12:00:56;1.70;99.90
52709;DHT22;38606;52.986;6.980;2024-01-06T12:03:22;1.60;99.90
52709;DHT22;38606;52.986;6.980;2024-01-06T12:06:02;1.60;99.90
52709;DHT22;38606;52.986;6.980;2024-01-06T12:08:28;1.70;99.90
52709;DHT22;38606;52.986;6.980;2024-01-06T12:11:04;1.60;99.90
52709;DHT22;38606;52.986;6.980;2024-01-06T12:13:30;1.70;99.90
52709;DHT22;38606;52.986;6.980;2024-01-06T12:18:22;1.60;99.90
52709;DHT22;38606;52.986;6.980;2024-01-06T12:20:50;1.50;99.90
52709;DHT22;38606;52.986;6.980;2024-01-06T12:23:29;1.70;99.90
52709;DHT22;38606;52.986;6.980;2024-01-06T12:25:55;1.50;99.90
52709;DHT22;38606;52.986;6.980;2024-01-06T12:28:21;1.60;99.90
52709;DHT22;38606;52.986;6.980;2024-01-06T12:30:47;1.60;99.90
52709;DHT22;38606;52.986;6.980;2024-01-06T12:33:13;1.60;99.90
52709;DHT22;38606;52.986;6.980;2024-01-06T12:35:40;1.60;99.90
52709;DHT22;38606;52.986;6.980;2024-01-06T12:38:08;1.60;99.90
52709;DHT22;38606;52.986;6.980;2024-01-06T12:40:35;1.60;99.90
52709;DHT22;38606;52.986;6.980;2024-01-06T12:43:03;1.50;99.90
52709;DHT22;38606;52.986;6.980;2024-01-06T12:45:29;1.60;99.90
52709;DHT22;38606;52.986;6.980;2024-01-06T12:47:55;1.60;99.90
52709;DHT22;38606;52.986;6.980;2024-01-06T12:50:21;1.60;99.90
52709;DHT22;38606;52.986;6.980;2024-01-06T12:52:46;1.60;99.90
52709;DHT22;38606;52.986;6.980;2024-01-06T12:55:14;1.60;99.90
52709;DHT22;38606;52.986;6.980;2024-01-06T12:57:42;1.50;99.90
52709;DHT22;38606;52.986;6.980;2024-01-06T13:00:09;1.60;99.90
52709;DHT22;38606;52.986;6.980;2024-01-06T13:02:37;1.50;99.90
52709;DHT22;38606;52.986;6.980;2024-01-06T13:05:04;1.60;99.90
52709;DHT22;38606;52.986;6.980;2024-01-06T13:07:30;1.50;99.90
52709;DHT22;38606;52.986;6.980;2024-01-06T13:09:55;1.60;99.90
52709;DHT22;38606;52.986;6.980;2024-01-06T13:12:21;1.50;99.90
52709;DHT22;38606;52.986;6.980;2024-01-06T13:14:49;1.50;99.90
52709;DHT22;38606;52.986;6.980;2024-01-06T13:17:16;1.50;99.90
52709;DHT22;38606;52.986;6.980;2024-01-06T13:19:42;1.50;99.90
52709;DHT22;38606;52.986;6.980;2024-01-06T13:22:08;1.50;99.90
52709;DHT22;38606;52.986;6.980;2024-01-06T13:26:59;1.40;99.90
52709;DHT22;38606;52.986;6.980;2024-01-06T13:29:28;1.50;99.90
52709;DHT22;38606;52.986;6.980;2024-01-06T13:31:54;1.40;99.90
52709;DHT22;38606;52.986;6.980;2024-01-06T13:34:20;1.40;99.90
52709;DHT22;38606;52.986;6.980;2024-01-06T13:36:46;1.40;99.90
52709;DHT22;38606;52.986;6.980;2024-01-06T13:39:11;1.50;99.90
52709;DHT22;38606;52.986;6.980;2024-01-06T13:41:46;1.40;99.90
52709;DHT22;38606;52.986;6.980;2024-01-06T13:44:13;1.40;99.90
52709;DHT22;38606;52.986;6.980;2024-01-06T13:46:39;1.50;99.90
52709;DHT22;38606;52.986;6.980;2024-01-06T13:49:09;1.50;99.90
52709;DHT22;38606;52.986;6.980;2024-01-06T13:54:01;1.40;99.90
52709;DHT22;38606;52.986;6.980;2024-01-06T13:56:27;1.40;99.90
52709;DHT22;38606;52.986;6.980;2024-01-06T13:58:53;1.40;99.90
52709;DHT22;38606;52.986;6.980;2024-01-06T14:01:18;1.40;99.90
52709;DHT22;38606;52.986;6.980;2024-01-06T14:03:44;1.40;99.90
52709;DHT22;38606;52.986;6.980;2024-01-06T14:06:11;1.50;99.90
52709;DHT22;38606;52.986;6.980;2024-01-06T14:08:37;1.50;99.90
52709;DHT22;38606;52.986;6.980;2024-01-06T14:11:03;1.40;99.90
52709;DHT22;38606;52.986;6.980;2024-01-06T14:18:22;1.40;99.90
52709;DHT22;38606;52.986;6.980;2024-01-06T14:20:48;1.30;99.90
52709;DHT22;38606;52.986;6.980;2024-01-06T14:23:14;1.30;99.90
52709;DHT22;38606;52.986;6.980;2024-01-06T14:25:39;1.20;99.90
52709;DHT22;38606;52.986;6.980;2024-01-06T14:28:05;1.20;99.90
52709;DHT22;38606;52.986;6.980;2024-01-06T14:30:32;1.20;99.90
52709;DHT22;38606;52.986;6.980;2024-01-06T14:32:57;1.30;99.90
52709;DHT22;38606;52.986;6.980;2024-01-06T14:35:23;1.20;99.90
52709;DHT22;38606;52.986;6.980;2024-01-06T14:37:49;1.40;99.90
52709;DHT22;38606;52.986;6.980;2024-01-06T14:42:43;1.30;99.90
52709;DHT22;38606;52.986;6.980;2024-01-06T14:45:09;1.40;99.90
52709;DHT22;38606;52.986;6.980;2024-01-06T14:47:35;1.10;99.90
52709;DHT22;38606;52.986;6.980;2024-01-06T14:54:53;1.10;99.90
52709;DHT22;38606;52.986;6.980;2024-01-06T14:57:19;1.20;99.90
52709;DHT22;38606;52.986;6.980;2024-01-06T14:59:44;1.20;99.90
52709;DHT22;38606;52.986;6.980;2024-01-06T15:02:10;1.20;99.90
52709;DHT22;38606;52.986;6.980;2024-01-06T15:04:39;1.20;99.90
52709;DHT22;38606;52.986;6.980;2024-01-06T15:07:05;1.20;99.90
52709;DHT22;38606;52.986;6.980;2024-01-06T15:11:56;1.10;99.90
52709;DHT22;38606;52.986;6.980;2024-01-06T15:14:23;1.10;99.90
52709;DHT22;38606;52.986;6.980;2024-01-06T15:19:15;1.20;99.90
52709;DHT22;38606;52.986;6.980;2024-01-06T15:21:41;1.10;99.90
52709;DHT22;38606;52.986;6.980;2024-01-06T15:24:08;1.10;99.90
52709;DHT22;38606;52.986;6.980;2024-01-06T15:26:34;1.00;99.90
52709;DHT22;38606;52.986;6.980;2024-01-06T15:28:59;0.90;99.90
52709;DHT22;38606;52.986;6.980;2024-01-06T15:31:26;1.10;99.90
52709;DHT22;38606;52.986;6.980;2024-01-06T15:33:52;1.10;99.90
52709;DHT22;38606;52.986;6.980;2024-01-06T15:41:10;1.00;99.90
52709;DHT22;38606;52.986;6.980;2024-01-06T15:46:03;1.00;99.90
52709;DHT22;38606;52.986;6.980;2024-01-06T15:50:57;1.00;99.90
52709;DHT22;38606;52.986;6.980;2024-01-06T15:55:49;1.00;99.90
52709;DHT22;38606;52.986;6.980;2024-01-06T15:58:15;0.90;99.90
52709;DHT22;38606;52.986;6.980;2024-01-06T16:00:42;0.90;99.90
52709;DHT22;38606;52.986;6.980;2024-01-06T16:08:04;0.90;99.90
52709;DHT22;38606;52.986;6.980;2024-01-06T16:12:56;1.00;99.90
52709;DHT22;38606;52.986;6.980;2024-01-06T16:15:25;1.10;99.90
52709;DHT22;38606;52.986;6.980;2024-01-06T16:20:17;1.00;99.90
52709;DHT22;38606;52.986;6.980;2024-01-06T16:22:42;1.00;99.90
52709;DHT22;38606;52.986;6.980;2024-01-06T16:27:36;1.00;99.90
52709;DHT22;38606;52.986;6.980;2024-01-06T16:30:02;0.90;99.90
52709;DHT22;38606;52.986;6.980;2024-01-06T16:32:28;0.80;99.90
52709;DHT22;38606;52.986;6.980;2024-01-06T16:34:53;0.90;99.90
52709;DHT22;38606;52.986;6.980;2024-01-06T16:39:45;0.80;99.90
52709;DHT22;38606;52.986;6.980;2024-01-06T16:44:37;0.80;99.90
52709;DHT22;38606;52.986;6.980;2024-01-06T16:51:58;0.80;99.90
52709;DHT22;38606;52.986;6.980;2024-01-06T16:54:23;0.80;99.90
52709;DHT22;38606;52.986;6.980;2024-01-06T16:59:16;0.80;99.90
52709;DHT22;38606;52.986;6.980;2024-01-06T17:01:42;0.80;99.90
52709;DHT22;38606;52.986;6.980;2024-01-06T17:04:07;0.70;99.90
52709;DHT22;38606;52.986;6.980;2024-01-06T17:08:59;0.70;99.90
52709;DHT22;38606;52.986;6.980;2024-01-06T17:11:25;0.70;99.90
52709;DHT22;38606;52.986;6.980;2024-01-06T17:13:51;0.80;99.90
52709;DHT22;38606;52.986;6.980;2024-01-06T17:21:09;0.80;99.90
52709;DHT22;38606;52.986;6.980;2024-01-06T17:23:40;0.70;99.90
52709;DHT22;38606;52.986;6.980;2024-01-06T17:26:06;0.70;99.90
52709;DHT22;38606;52.986;6.980;2024-01-06T17:33:26;1.70;99.90
52709;DHT22;38606;52.986;6.980;2024-01-06T17:38:18;0.80;99.90
52709;DHT22;38606;52.986;6.980;2024-01-06T17:40:44;0.60;99.90
52709;DHT22;38606;52.986;6.980;2024-01-06T17:48:04;0.70;99.90
52709;DHT22;38606;52.986;6.980;2024-01-06T17:50:30;0.60;99.90
52709;DHT22;38606;52.986;6.980;2024-01-06T17:52:56;0.60;99.90
52709;DHT22;38606;52.986;6.980;2024-01-06T17:57:48;0.60;99.90
52709;DHT22;38606;52.986;6.980;2024-01-06T18:00:14;0.50;99.90
52709;DHT22;38606;52.986;6.980;2024-01-06T18:02:40;0.60;99.90
52709;DHT22;38606;52.986;6.980;2024-01-06T18:05:08;0.50;99.90
52709;DHT22;38606;52.986;6.980;2024-01-06T18:10:00;0.60;99.90
52709;DHT22;38606;52.986;6.980;2024-01-06T18:14:52;0.60;99.90
52709;DHT22;38606;52.986;6.980;2024-01-06T18:27:04;0.70;99.90
52709;DHT22;38606;52.986;6.980;2024-01-06T18:29:30;0.70;99.90
52709;DHT22;38606;52.986;6.980;2024-01-06T18:36:49;0.50;99.90
52709;DHT22;38606;52.986;6.980;2024-01-06T18:41:41;0.60;99.90
52709;DHT22;38606;52.986;6.980;2024-01-06T18:44:07;0.60;99.90
52709;DHT22;38606;52.986;6.980;2024-01-06T18:46:38;0.60;99.90
52709;DHT22;38606;52.986;6.980;2024-01-06T18:49:05;0.60;99.90
52709;DHT22;38606;52.986;6.980;2024-01-06T18:54:07;0.50;99.90
52709;DHT22;38606;52.986;6.980;2024-01-06T18:59:00;0.60;99.90
52709;DHT22;38606;52.986;6.980;2024-01-06T19:01:29;0.60;99.90
52709;DHT22;38606;52.986;6.980;2024-01-06T19:11:15;0.50;99.90
52709;DHT22;38606;52.986;6.980;2024-01-06T19:23:25;0.40;99.90
52709;DHT22;38606;52.986;6.980;2024-01-06T19:30:44;0.60;99.90
52709;DHT22;38606;52.986;6.980;2024-01-06T19:38:04;0.50;99.90
52709;DHT22;38606;52.986;6.980;2024-01-06T19:43:00;0.30;99.90
52709;DHT22;38606;52.986;6.980;2024-01-06T19:45:27;0.40;99.90
52709;DHT22;38606;52.986;6.980;2024-01-06T19:57:37;0.50;99.90
52709;DHT22;38606;52.986;6.980;2024-01-06T20:00:04;0.40;99.90
52709;DHT22;38606;52.986;6.980;2024-01-06T20:04:57;0.50;99.90
52709;DHT22;38606;52.986;6.980;2024-01-06T20:22:05;0.20;99.90
52709;DHT22;38606;52.986;6.980;2024-01-06T20:24:32;0.50;99.90
52709;DHT22;38606;52.986;6.980;2024-01-06T20:36:42;0.50;99.90
52709;DHT22;38606;52.986;6.980;2024-01-06T20:39:08;0.40;99.90
52709;DHT22;38606;52.986;6.980;2024-01-06T20:48:53;0.50;99.90
52709;DHT22;38606;52.986;6.980;2024-01-06T20:58:39;0.30;99.90
52709;DHT22;38606;52.986;6.980;2024-01-06T21:35:14;0.30;99.90
52709;DHT22;38606;52.986;6.980;2024-01-06T21:40:07;0.30;99.90
52709;DHT22;38606;52.986;6.980;2024-01-06T21:42:34;0.20;99.90
52709;DHT22;38606;52.986;6.980;2024-01-06T21:45:02;0.40;99.90
52709;DHT22;38606;52.986;6.980;2024-01-06T22:06:57;0.20;99.90
52709;DHT22;38606;52.986;6.980;2024-01-06T22:21:42;0.30;99.90
52709;DHT22;38606;52.986;6.980;2024-01-06T22:24:09;2.10;99.90
52709;DHT22;38606;52.986;6.980;2024-01-06T22:26:36;0.30;99.90
52709;DHT22;38606;52.986;6.980;2024-01-06T22:53:25;0.30;99.90
52709;DHT22;38606;52.986;6.980;2024-01-06T23:17:49;0.30;99.90
52709;DHT22;38606;52.986;6.980;2024-01-06T23:20:16;0.40;99.90
52709;DHT22;38606;52.986;6.980;2024-01-06T23:22:42;0.30;99.90
52709;DHT22;38606;52.986;6.980;2024-01-06T23:25:09;0.40;99.90
52709;DHT22;38606;52.986;6.980;2024-01-06T23:34:54;0.40;99.90
52709;DHT22;38606;52.986;6.980;2024-01-06T23:39:45;0.30;99.90
52709;DHT22;38606;52.986;6.980;2024-01-06T23:42:12;0.40;99.90
52709;DHT22;38606;52.986;6.980;2024-01-06T23:44:39;0.30;99.90
52709;DHT22;38606;52.986;6.980;2024-01-06T23:49:32;0.50;99.90
52709;DHT22;38606;52.986;6.980;2024-01-06T23:59:17;0.40;99.90
